sensor_id;sensor_type;location;lat;lon;timestamp;temperature;humidity
59855;DHT22;45732;52.850;6.896;2022-09-02T00:00:53;14.70;99.90
59855;DHT22;45732;52.850;6.896;2022-09-02T00:03:19;14.60;99.90
59855;DHT22;45732;52.850;6.896;2022-09-02T00:05:45;14.70;99.90
59855;DHT22;45732;52.850;6.896;2022-09-02T00:08:11;14.70;99.90
59855;DHT22;45732;52.850;6.896;2022-09-02T00:10:40;14.60;99.90
59855;DHT22;45732;52.850;6.896;2022-09-02T00:13:09;14.60;99.90
59855;DHT22;45732;52.850;6.896;2022-09-02T00:15:35;14.50;99.90
59855;DHT22;45732;52.850;6.896;2022-09-02T00:18:01;14.60;99.90
59855;DHT22;45732;52.850;6.896;2022-09-02T00:20:28;14.60;99.90
59855;DHT22;45732;52.850;6.896;2022-09-02T00:22:55;14.60;99.90
59855;DHT22;45732;52.850;6.896;2022-09-02T00:25:21;14.60;99.90
59855;DHT22;45732;52.850;6.896;2022-09-02T00:27:48;14.50;99.90
59855;DHT22;45732;52.850;6.896;2022-09-02T00:30:14;14.60;99.90
59855;DHT22;45732;52.850;6.896;2022-09-02T00:32:40;14.60;99.90
59855;DHT22;45732;52.850;6.896;2022-09-02T00:35:06;14.60;99.90
59855;DHT22;45732;52.850;6.896;2022-09-02T00:37:32;14.60;99.90
59855;DHT22;45732;52.850;6.896;2022-09-02T00:39:58;14.60;99.90
59855;DHT22;45732;52.850;6.896;2022-09-02T00:42:24;14.60;99.90
59855;DHT22;45732;52.850;6.896;2022-09-02T00:44:51;14.60;99.90
59855;DHT22;45732;52.850;6.896;2022-09-02T00:47:17;14.60;99.90
59855;DHT22;45732;52.850;6.896;2022-09-02T00:49:47;14.70;99.90
59855;DHT22;45732;52.850;6.896;2022-09-02T00:52:25;14.70;99.90
59855;DHT22;45732;52.850;6.896;2022-09-02T00:55:24;14.60;99.90
59855;DHT22;45732;52.850;6.896;2022-09-02T00:57:53;14.60;99.90
59855;DHT22;45732;52.850;6.896;2022-09-02T01:00:27;14.60;99.90
59855;DHT22;45732;52.850;6.896;2022-09-02T01:02:56;14.60;99.90
59855;DHT22;45732;52.850;6.896;2022-09-02T01:05:24;14.50;99.90
59855;DHT22;45732;52.850;6.896;2022-09-02T01:07:53;14.50;99.90
59855;DHT22;45732;52.850;6.896;2022-09-02T01:10:23;14.50;99.90
59855;DHT22;45732;52.850;6.896;2022-09-02T01:12:56;14.40;99.90
59855;DHT22;45732;52.850;6.896;2022-09-02T01:15:23;14.50;99.90
59855;DHT22;45732;52.850;6.896;2022-09-02T01:17:49;14.50;99.90
59855;DHT22;45732;52.850;6.896;2022-09-02T01:20:20;14.40;99.90
59855;DHT22;45732;52.850;6.896;2022-09-02T01:22:47;14.50;99.90
59855;DHT22;45732;52.850;6.896;2022-09-02T01:25:26;14.40;99.90
59855;DHT22;45732;52.850;6.896;2022-09-02T01:27:52;14.40;99.90
59855;DHT22;45732;52.850;6.896;2022-09-02T01:30:23;14.40;99.90
59855;DHT22;45732;52.850;6.896;2022-09-02T01:32:50;14.50;99.90
59855;DHT22;45732;52.850;6.896;2022-09-02T01:35:16;14.40;99.90
59855;DHT22;45732;52.850;6.896;2022-09-02T01:37:43;14.40;99.90
59855;DHT22;45732;52.850;6.896;2022-09-02T01:40:13;14.40;99.90
59855;DHT22;45732;52.850;6.896;2022-09-02T01:42:41;14.40;99.90
59855;DHT22;45732;52.850;6.896;2022-09-02T01:45:08;14.40;99.90
59855;DHT22;45732;52.850;6.896;2022-09-02T01:47:34;14.30;99.90
59855;DHT22;45732;52.850;6.896;2022-09-02T01:50:01;14.20;99.90
59855;DHT22;45732;52.850;6.896;2022-09-02T01:52:28;14.20;99.90
59855;DHT22;45732;52.850;6.896;2022-09-02T01:54:54;14.10;99.90
59855;DHT22;45732;52.850;6.896;2022-09-02T01:57:20;14.10;99.90
59855;DHT22;45732;52.850;6.896;2022-09-02T01:59:52;14.00;99.90
59855;DHT22;45732;52.850;6.896;2022-09-02T02:02:19;14.00;99.90
59855;DHT22;45732;52.850;6.896;2022-09-02T02:04:46;14.00;99.90
59855;DHT22;45732;52.850;6.896;2022-09-02T02:07:14;14.00;99.90
59855;DHT22;45732;52.850;6.896;2022-09-02T02:09:41;13.90;99.90
59855;DHT22;45732;52.850;6.896;2022-09-02T02:12:07;13.90;99.90
59855;DHT22;45732;52.850;6.896;2022-09-02T02:14:34;13.90;99.90
59855;DHT22;45732;52.850;6.896;2022-09-02T02:16:59;13.90;99.90
59855;DHT22;45732;52.850;6.896;2022-09-02T02:19:26;13.90;99.90
59855;DHT22;45732;52.850;6.896;2022-09-02T02:21:52;13.80;99.90
59855;DHT22;45732;52.850;6.896;2022-09-02T02:24:18;13.80;99.90
59855;DHT22;45732;52.850;6.896;2022-09-02T02:26:44;13.90;99.90
59855;DHT22;45732;52.850;6.896;2022-09-02T02:29:10;13.80;99.90
59855;DHT22;45732;52.850;6.896;2022-09-02T02:31:36;13.80;99.90
59855;DHT22;45732;52.850;6.896;2022-09-02T02:34:03;13.80;99.90
59855;DHT22;45732;52.850;6.896;2022-09-02T02:36:29;13.80;99.90
59855;DHT22;45732;52.850;6.896;2022-09-02T02:38:55;13.80;99.90
59855;DHT22;45732;52.850;6.896;2022-09-02T02:41:21;13.80;99.90
59855;DHT22;45732;52.850;6.896;2022-09-02T02:43:46;13.80;99.90
59855;DHT22;45732;52.850;6.896;2022-09-02T02:46:12;13.80;99.90
59855;DHT22;45732;52.850;6.896;2022-09-02T02:48:38;13.80;99.90
59855;DHT22;45732;52.850;6.896;2022-09-02T02:51:04;13.80;99.90
59855;DHT22;45732;52.850;6.896;2022-09-02T02:53:31;13.80;99.90
59855;DHT22;45732;52.850;6.896;2022-09-02T02:55:59;13.80;99.90
59855;DHT22;45732;52.850;6.896;2022-09-02T02:58:25;13.70;99.90
59855;DHT22;45732;52.850;6.896;2022-09-02T03:00:51;13.60;99.90
59855;DHT22;45732;52.850;6.896;2022-09-02T03:03:17;13.60;99.90
59855;DHT22;45732;52.850;6.896;2022-09-02T03:05:45;13.60;99.90
59855;DHT22;45732;52.850;6.896;2022-09-02T03:08:12;13.50;99.90
59855;DHT22;45732;52.850;6.896;2022-09-02T03:10:39;13.50;99.90
59855;DHT22;45732;52.850;6.896;2022-09-02T03:13:07;13.50;99.90
59855;DHT22;45732;52.850;6.896;2022-09-02T03:15:35;13.50;99.90
59855;DHT22;45732;52.850;6.896;2022-09-02T03:18:03;13.50;99.90
59855;DHT22;45732;52.850;6.896;2022-09-02T03:20:29;13.50;99.90
59855;DHT22;45732;52.850;6.896;2022-09-02T03:22:57;13.50;99.90
59855;DHT22;45732;52.850;6.896;2022-09-02T03:25:25;13.40;99.90
59855;DHT22;45732;52.850;6.896;2022-09-02T03:27:51;13.50;99.90
59855;DHT22;45732;52.850;6.896;2022-09-02T03:30:22;13.50;99.90
59855;DHT22;45732;52.850;6.896;2022-09-02T03:32:53;13.50;99.90
59855;DHT22;45732;52.850;6.896;2022-09-02T03:35:20;13.40;99.90
59855;DHT22;45732;52.850;6.896;2022-09-02T03:37:47;13.40;99.90
59855;DHT22;45732;52.850;6.896;2022-09-02T03:40:16;13.30;99.90
59855;DHT22;45732;52.850;6.896;2022-09-02T03:42:42;13.30;99.90
59855;DHT22;45732;52.850;6.896;2022-09-02T03:45:09;13.20;99.90
59855;DHT22;45732;52.850;6.896;2022-09-02T03:47:36;13.10;99.90
59855;DHT22;45732;52.850;6.896;2022-09-02T03:50:05;13.10;99.90
59855;DHT22;45732;52.850;6.896;2022-09-02T03:52:31;13.10;99.90
59855;DHT22;45732;52.850;6.896;2022-09-02T03:54:57;13.10;99.90
59855;DHT22;45732;52.850;6.896;2022-09-02T03:57:25;13.10;99.90
59855;DHT22;45732;52.850;6.896;2022-09-02T03:59:52;13.20;99.90
59855;DHT22;45732;52.850;6.896;2022-09-02T04:02:17;13.20;99.90
59855;DHT22;45732;52.850;6.896;2022-09-02T04:04:43;13.20;99.90
59855;DHT22;45732;52.850;6.896;2022-09-02T04:07:09;13.10;99.90
59855;DHT22;45732;52.850;6.896;2022-09-02T04:09:40;13.10;99.90
59855;DHT22;45732;52.850;6.896;2022-09-02T04:12:06;13.10;99.90
59855;DHT22;45732;52.850;6.896;2022-09-02T04:14:32;13.00;99.90
59855;DHT22;45732;52.850;6.896;2022-09-02T04:16:58;13.00;99.90
59855;DHT22;45732;52.850;6.896;2022-09-02T04:19:23;13.00;99.90
59855;DHT22;45732;52.850;6.896;2022-09-02T04:21:49;13.00;99.90
59855;DHT22;45732;52.850;6.896;2022-09-02T04:24:15;13.00;99.90
59855;DHT22;45732;52.850;6.896;2022-09-02T04:26:40;13.00;99.90
59855;DHT22;45732;52.850;6.896;2022-09-02T04:29:06;13.00;99.90
59855;DHT22;45732;52.850;6.896;2022-09-02T04:31:34;13.00;99.90
59855;DHT22;45732;52.850;6.896;2022-09-02T04:37:05;13.10;99.90
59855;DHT22;45732;52.850;6.896;2022-09-02T04:39:31;13.10;99.90
59855;DHT22;45732;52.850;6.896;2022-09-02T04:41:56;13.10;99.90
59855;DHT22;45732;52.850;6.896;2022-09-02T04:44:22;13.10;99.90
59855;DHT22;45732;52.850;6.896;2022-09-02T04:46:47;13.10;99.90
59855;DHT22;45732;52.850;6.896;2022-09-02T04:49:14;13.10;99.90
59855;DHT22;45732;52.850;6.896;2022-09-02T04:51:39;13.10;99.90
59855;DHT22;45732;52.850;6.896;2022-09-02T04:54:05;13.00;99.90
59855;DHT22;45732;52.850;6.896;2022-09-02T04:56:32;13.00;99.90
59855;DHT22;45732;52.850;6.896;2022-09-02T04:58:58;13.00;99.90
59855;DHT22;45732;52.850;6.896;2022-09-02T05:01:27;12.90;99.90
59855;DHT22;45732;52.850;6.896;2022-09-02T05:03:53;12.90;99.90
59855;DHT22;45732;52.850;6.896;2022-09-02T05:06:24;12.90;99.90
59855;DHT22;45732;52.850;6.896;2022-09-02T05:08:54;12.90;99.90
59855;DHT22;45732;52.850;6.896;2022-09-02T05:11:25;12.90;99.90
59855;DHT22;45732;52.850;6.896;2022-09-02T05:13:57;13.00;99.90
59855;DHT22;45732;52.850;6.896;2022-09-02T05:16:31;12.90;99.90
59855;DHT22;45732;52.850;6.896;2022-09-02T05:18:59;12.90;99.90
59855;DHT22;45732;52.850;6.896;2022-09-02T05:21:24;12.90;99.90
59855;DHT22;45732;52.850;6.896;2022-09-02T05:23:51;12.90;99.90
59855;DHT22;45732;52.850;6.896;2022-09-02T05:26:17;12.90;99.90
59855;DHT22;45732;52.850;6.896;2022-09-02T05:28:43;12.90;99.90
59855;DHT22;45732;52.850;6.896;2022-09-02T05:31:12;12.90;99.90
59855;DHT22;45732;52.850;6.896;2022-09-02T05:33:39;12.90;99.90
59855;DHT22;45732;52.850;6.896;2022-09-02T05:36:12;13.00;99.90
59855;DHT22;45732;52.850;6.896;2022-09-02T05:38:39;13.00;99.90
59855;DHT22;45732;52.850;6.896;2022-09-02T05:41:11;13.00;99.90
59855;DHT22;45732;52.850;6.896;2022-09-02T05:43:38;13.00;99.90
59855;DHT22;45732;52.850;6.896;2022-09-02T05:46:08;13.10;99.90
59855;DHT22;45732;52.850;6.896;2022-09-02T05:48:36;13.20;99.90
59855;DHT22;45732;52.850;6.896;2022-09-02T05:51:21;13.20;99.90
59855;DHT22;45732;52.850;6.896;2022-09-02T05:53:51;13.40;99.90
59855;DHT22;45732;52.850;6.896;2022-09-02T05:56:18;13.40;99.90
59855;DHT22;45732;52.850;6.896;2022-09-02T05:58:43;13.50;99.90
59855;DHT22;45732;52.850;6.896;2022-09-02T06:01:10;13.50;99.90
59855;DHT22;45732;52.850;6.896;2022-09-02T06:03:37;13.60;99.90
59855;DHT22;45732;52.850;6.896;2022-09-02T06:06:04;13.70;99.90
59855;DHT22;45732;52.850;6.896;2022-09-02T06:08:31;13.70;99.90
59855;DHT22;45732;52.850;6.896;2022-09-02T06:10:57;13.80;99.90
59855;DHT22;45732;52.850;6.896;2022-09-02T06:13:23;13.90;99.90
59855;DHT22;45732;52.850;6.896;2022-09-02T06:15:50;13.90;99.90
59855;DHT22;45732;52.850;6.896;2022-09-02T06:18:16;14.00;99.90
59855;DHT22;45732;52.850;6.896;2022-09-02T06:20:46;14.10;99.90
59855;DHT22;45732;52.850;6.896;2022-09-02T06:23:14;14.20;99.90
59855;DHT22;45732;52.850;6.896;2022-09-02T06:25:42;14.40;99.90
59855;DHT22;45732;52.850;6.896;2022-09-02T06:28:09;14.40;99.90
59855;DHT22;45732;52.850;6.896;2022-09-02T06:30:38;14.50;99.90
59855;DHT22;45732;52.850;6.896;2022-09-02T06:33:04;14.60;99.90
59855;DHT22;45732;52.850;6.896;2022-09-02T06:35:34;14.70;99.90
59855;DHT22;45732;52.850;6.896;2022-09-02T06:38:00;14.70;99.90
59855;DHT22;45732;52.850;6.896;2022-09-02T06:40:26;14.80;99.90
59855;DHT22;45732;52.850;6.896;2022-09-02T06:42:52;14.90;99.90
59855;DHT22;45732;52.850;6.896;2022-09-02T06:45:19;14.90;99.90
59855;DHT22;45732;52.850;6.896;2022-09-02T06:47:45;15.00;99.90
59855;DHT22;45732;52.850;6.896;2022-09-02T06:50:11;15.10;99.90
59855;DHT22;45732;52.850;6.896;2022-09-02T06:52:38;15.20;99.90
59855;DHT22;45732;52.850;6.896;2022-09-02T06:55:04;15.30;99.90
59855;DHT22;45732;52.850;6.896;2022-09-02T06:57:29;15.30;99.90
59855;DHT22;45732;52.850;6.896;2022-09-02T06:59:55;15.40;99.90
59855;DHT22;45732;52.850;6.896;2022-09-02T07:02:21;15.40;99.90
59855;DHT22;45732;52.850;6.896;2022-09-02T07:04:47;15.50;99.90
59855;DHT22;45732;52.850;6.896;2022-09-02T07:07:33;15.60;99.90
59855;DHT22;45732;52.850;6.896;2022-09-02T07:09:59;15.60;99.90
59855;DHT22;45732;52.850;6.896;2022-09-02T07:12:25;15.80;99.90
59855;DHT22;45732;52.850;6.896;2022-09-02T07:14:52;15.80;99.90
59855;DHT22;45732;52.850;6.896;2022-09-02T07:17:18;15.90;99.90
59855;DHT22;45732;52.850;6.896;2022-09-02T07:19:47;16.00;99.90
59855;DHT22;45732;52.850;6.896;2022-09-02T07:22:13;16.00;99.90
59855;DHT22;45732;52.850;6.896;2022-09-02T07:24:39;16.10;99.90
59855;DHT22;45732;52.850;6.896;2022-09-02T07:27:05;16.20;99.90
59855;DHT22;45732;52.850;6.896;2022-09-02T07:29:32;16.30;99.90
59855;DHT22;45732;52.850;6.896;2022-09-02T07:31:58;16.30;99.90
59855;DHT22;45732;52.850;6.896;2022-09-02T07:34:24;16.40;99.90
59855;DHT22;45732;52.850;6.896;2022-09-02T07:36:50;16.50;99.90
59855;DHT22;45732;52.850;6.896;2022-09-02T07:39:18;16.50;99.90
59855;DHT22;45732;52.850;6.896;2022-09-02T07:41:46;16.60;99.90
59855;DHT22;45732;52.850;6.896;2022-09-02T07:44:13;16.70;99.90
59855;DHT22;45732;52.850;6.896;2022-09-02T07:46:40;16.80;99.90
59855;DHT22;45732;52.850;6.896;2022-09-02T07:49:08;16.80;99.90
59855;DHT22;45732;52.850;6.896;2022-09-02T07:51:36;16.90;99.90
59855;DHT22;45732;52.850;6.896;2022-09-02T07:54:03;17.00;99.90
59855;DHT22;45732;52.850;6.896;2022-09-02T07:56:30;17.10;99.90
59855;DHT22;45732;52.850;6.896;2022-09-02T07:58:55;17.20;99.90
59855;DHT22;45732;52.850;6.896;2022-09-02T08:01:21;17.20;99.90
59855;DHT22;45732;52.850;6.896;2022-09-02T08:03:47;17.30;99.90
59855;DHT22;45732;52.850;6.896;2022-09-02T08:06:13;17.40;99.90
59855;DHT22;45732;52.850;6.896;2022-09-02T08:08:39;17.50;99.90
59855;DHT22;45732;52.850;6.896;2022-09-02T08:11:06;17.50;99.90
59855;DHT22;45732;52.850;6.896;2022-09-02T08:13:33;17.60;99.90
59855;DHT22;45732;52.850;6.896;2022-09-02T08:16:00;17.70;99.90
59855;DHT22;45732;52.850;6.896;2022-09-02T08:18:27;17.80;99.90
59855;DHT22;45732;52.850;6.896;2022-09-02T08:20:53;17.90;99.90
59855;DHT22;45732;52.850;6.896;2022-09-02T08:23:19;18.00;99.90
59855;DHT22;45732;52.850;6.896;2022-09-02T08:25:45;18.00;99.90
59855;DHT22;45732;52.850;6.896;2022-09-02T08:28:11;18.10;99.90
59855;DHT22;45732;52.850;6.896;2022-09-02T08:30:36;18.20;99.90
59855;DHT22;45732;52.850;6.896;2022-09-02T08:33:02;18.20;99.90
59855;DHT22;45732;52.850;6.896;2022-09-02T08:35:28;18.30;99.90
59855;DHT22;45732;52.850;6.896;2022-09-02T08:37:54;18.40;99.90
59855;DHT22;45732;52.850;6.896;2022-09-02T08:40:23;18.50;99.90
59855;DHT22;45732;52.850;6.896;2022-09-02T08:42:55;18.60;99.90
59855;DHT22;45732;52.850;6.896;2022-09-02T08:45:31;18.60;99.90
59855;DHT22;45732;52.850;6.896;2022-09-02T08:50:45;18.80;99.90
59855;DHT22;45732;52.850;6.896;2022-09-02T08:53:16;18.90;99.90
59855;DHT22;45732;52.850;6.896;2022-09-02T08:55:48;18.90;99.90
59855;DHT22;45732;52.850;6.896;2022-09-02T08:58:19;19.00;99.90
59855;DHT22;45732;52.850;6.896;2022-09-02T09:01:26;19.10;99.90
59855;DHT22;45732;52.850;6.896;2022-09-02T09:04:04;19.20;99.90
59855;DHT22;45732;52.850;6.896;2022-09-02T09:06:46;19.30;99.90
59855;DHT22;45732;52.850;6.896;2022-09-02T09:09:26;19.30;99.90
59855;DHT22;45732;52.850;6.896;2022-09-02T09:14:57;19.50;99.90
59855;DHT22;45732;52.850;6.896;2022-09-02T09:20:25;19.60;99.90
59855;DHT22;45732;52.850;6.896;2022-09-02T09:22:55;19.70;99.90
59855;DHT22;45732;52.850;6.896;2022-09-02T09:25:22;19.70;99.90
59855;DHT22;45732;52.850;6.896;2022-09-02T09:27:54;19.80;99.90
59855;DHT22;45732;52.850;6.896;2022-09-02T09:30:20;19.90;99.90
59855;DHT22;45732;52.850;6.896;2022-09-02T09:32:49;19.90;99.90
59855;DHT22;45732;52.850;6.896;2022-09-02T09:35:17;20.00;99.90
59855;DHT22;45732;52.850;6.896;2022-09-02T09:37:50;20.10;99.90
59855;DHT22;45732;52.850;6.896;2022-09-02T09:42:46;20.20;99.80
59855;DHT22;45732;52.850;6.896;2022-09-02T09:50:36;20.40;98.70
59855;DHT22;45732;52.850;6.896;2022-09-02T09:53:16;20.50;98.40
59855;DHT22;45732;52.850;6.896;2022-09-02T10:03:52;20.70;96.70
59855;DHT22;45732;52.850;6.896;2022-09-02T10:06:35;20.80;96.70
59855;DHT22;45732;52.850;6.896;2022-09-02T10:11:38;21.00;95.70
59855;DHT22;45732;52.850;6.896;2022-09-02T10:14:10;21.00;95.30
59855;DHT22;45732;52.850;6.896;2022-09-02T10:19:54;21.10;94.70
59855;DHT22;45732;52.850;6.896;2022-09-02T10:28:14;21.30;94.30
59855;DHT22;45732;52.850;6.896;2022-09-02T10:36:36;21.30;93.60
59855;DHT22;45732;52.850;6.896;2022-09-02T10:41:47;21.50;93.30
59855;DHT22;45732;52.850;6.896;2022-09-02T10:44:26;21.50;93.40
59855;DHT22;45732;52.850;6.896;2022-09-02T10:47:03;21.60;92.70
59855;DHT22;45732;52.850;6.896;2022-09-02T10:49:53;21.60;93.00
59855;DHT22;45732;52.850;6.896;2022-09-02T10:53:08;21.60;92.90
59855;DHT22;45732;52.850;6.896;2022-09-02T10:58:49;21.70;92.10
59855;DHT22;45732;52.850;6.896;2022-09-02T11:04:08;21.80;92.10
59855;DHT22;45732;52.850;6.896;2022-09-02T11:06:40;21.90;91.70
59855;DHT22;45732;52.850;6.896;2022-09-02T11:09:11;22.00;91.70
59855;DHT22;45732;52.850;6.896;2022-09-02T11:11:53;22.00;91.50
59855;DHT22;45732;52.850;6.896;2022-09-02T11:14:23;22.10;91.00
59855;DHT22;45732;52.850;6.896;2022-09-02T11:17:06;22.10;90.30
59855;DHT22;45732;52.850;6.896;2022-09-02T11:19:41;22.20;90.90
59855;DHT22;45732;52.850;6.896;2022-09-02T11:22:21;22.20;90.40
59855;DHT22;45732;52.850;6.896;2022-09-02T11:25:16;22.30;89.40
59855;DHT22;45732;52.850;6.896;2022-09-02T11:36:47;23.10;86.90
59855;DHT22;45732;52.850;6.896;2022-09-02T11:49:44;23.50;83.10
59855;DHT22;45732;52.850;6.896;2022-09-02T11:57:02;23.20;83.00
59855;DHT22;45732;52.850;6.896;2022-09-02T12:00:01;23.00;84.20
59855;DHT22;45732;52.850;6.896;2022-09-02T12:06:03;22.80;82.90
59855;DHT22;45732;52.850;6.896;2022-09-02T12:13:50;22.60;84.20
59855;DHT22;45732;52.850;6.896;2022-09-02T12:16:34;22.60;84.00
59855;DHT22;45732;52.850;6.896;2022-09-02T12:21:32;22.60;84.00
59855;DHT22;45732;52.850;6.896;2022-09-02T12:27:01;22.60;84.30
59855;DHT22;45732;52.850;6.896;2022-09-02T12:31:48;22.50;84.10
59855;DHT22;45732;52.850;6.896;2022-09-02T12:36:59;22.50;83.20
59855;DHT22;45732;52.850;6.896;2022-09-02T12:42:16;22.40;84.10
59855;DHT22;45732;52.850;6.896;2022-09-02T12:45:12;22.40;84.00
59855;DHT22;45732;52.850;6.896;2022-09-02T12:53:42;22.40;82.90
59855;DHT22;45732;52.850;6.896;2022-09-02T12:56:23;22.40;82.90
59855;DHT22;45732;52.850;6.896;2022-09-02T12:58:56;22.30;83.50
59855;DHT22;45732;52.850;6.896;2022-09-02T13:09:37;22.20;84.10
59855;DHT22;45732;52.850;6.896;2022-09-02T13:31:21;22.50;83.50
59855;DHT22;45732;52.850;6.896;2022-09-02T13:36:49;22.40;83.20
59855;DHT22;45732;52.850;6.896;2022-09-02T13:39:25;22.50;82.50
59855;DHT22;45732;52.850;6.896;2022-09-02T13:41:52;22.50;82.70
59855;DHT22;45732;52.850;6.896;2022-09-02T13:44:31;22.50;82.10
59855;DHT22;45732;52.850;6.896;2022-09-02T13:47:04;22.50;81.20
59855;DHT22;45732;52.850;6.896;2022-09-02T13:49:44;22.50;81.50
59855;DHT22;45732;52.850;6.896;2022-09-02T13:52:21;22.60;82.10
59855;DHT22;45732;52.850;6.896;2022-09-02T13:54:58;22.60;82.10
59855;DHT22;45732;52.850;6.896;2022-09-02T13:57:28;22.60;81.90
59855;DHT22;45732;52.850;6.896;2022-09-02T13:59:56;22.60;81.90
59855;DHT22;45732;52.850;6.896;2022-09-02T14:02:28;22.70;82.40
59855;DHT22;45732;52.850;6.896;2022-09-02T14:05:14;22.70;81.90
59855;DHT22;45732;52.850;6.896;2022-09-02T14:07:44;22.70;80.80
59855;DHT22;45732;52.850;6.896;2022-09-02T14:10:15;22.70;81.30
59855;DHT22;45732;52.850;6.896;2022-09-02T14:12:42;22.70;82.30
59855;DHT22;45732;52.850;6.896;2022-09-02T14:15:22;22.70;82.30
59855;DHT22;45732;52.850;6.896;2022-09-02T14:18:21;22.70;82.90
59855;DHT22;45732;52.850;6.896;2022-09-02T14:20:59;22.60;81.80
59855;DHT22;45732;52.850;6.896;2022-09-02T14:23:37;22.50;84.00
59855;DHT22;45732;52.850;6.896;2022-09-02T14:26:04;22.40;83.90
59855;DHT22;45732;52.850;6.896;2022-09-02T14:28:33;22.40;83.20
59855;DHT22;45732;52.850;6.896;2022-09-02T14:31:05;22.40;82.70
59855;DHT22;45732;52.850;6.896;2022-09-02T14:33:46;22.30;81.70
59855;DHT22;45732;52.850;6.896;2022-09-02T14:36:32;22.30;81.90
59855;DHT22;45732;52.850;6.896;2022-09-02T14:39:28;22.40;81.30
59855;DHT22;45732;52.850;6.896;2022-09-02T14:41:55;22.40;82.50
59855;DHT22;45732;52.850;6.896;2022-09-02T14:44:29;22.40;82.50
59855;DHT22;45732;52.850;6.896;2022-09-02T14:47:04;22.50;81.80
59855;DHT22;45732;52.850;6.896;2022-09-02T14:49:36;22.60;82.30
59855;DHT22;45732;52.850;6.896;2022-09-02T14:54:43;22.70;82.50
59855;DHT22;45732;52.850;6.896;2022-09-02T14:57:25;22.80;81.40
59855;DHT22;45732;52.850;6.896;2022-09-02T15:02:29;23.00;80.30
59855;DHT22;45732;52.850;6.896;2022-09-02T15:05:02;23.10;80.10
59855;DHT22;45732;52.850;6.896;2022-09-02T15:07:28;23.10;79.40
59855;DHT22;45732;52.850;6.896;2022-09-02T15:09:54;23.20;79.30
59855;DHT22;45732;52.850;6.896;2022-09-02T15:12:32;23.20;78.70
59855;DHT22;45732;52.850;6.896;2022-09-02T15:14:58;23.20;78.50
59855;DHT22;45732;52.850;6.896;2022-09-02T15:17:25;23.20;78.50
59855;DHT22;45732;52.850;6.896;2022-09-02T15:19:51;23.30;78.50
59855;DHT22;45732;52.850;6.896;2022-09-02T15:22:18;23.30;79.10
59855;DHT22;45732;52.850;6.896;2022-09-02T15:24:44;23.40;78.40
59855;DHT22;45732;52.850;6.896;2022-09-02T15:27:13;23.50;78.40
59855;DHT22;45732;52.850;6.896;2022-09-02T15:29:39;23.50;78.50
59855;DHT22;45732;52.850;6.896;2022-09-02T15:32:05;23.70;79.60
59855;DHT22;45732;52.850;6.896;2022-09-02T15:34:31;23.80;78.60
59855;DHT22;45732;52.850;6.896;2022-09-02T15:36:57;23.90;79.00
59855;DHT22;45732;52.850;6.896;2022-09-02T15:39:24;23.90;79.00
59855;DHT22;45732;52.850;6.896;2022-09-02T15:41:50;24.10;79.90
59855;DHT22;45732;52.850;6.896;2022-09-02T15:44:20;24.10;79.80
59855;DHT22;45732;52.850;6.896;2022-09-02T15:46:45;24.00;78.90
59855;DHT22;45732;52.850;6.896;2022-09-02T15:49:13;24.00;78.70
59855;DHT22;45732;52.850;6.896;2022-09-02T15:51:42;24.00;78.50
59855;DHT22;45732;52.850;6.896;2022-09-02T15:54:13;23.90;78.20
59855;DHT22;45732;52.850;6.896;2022-09-02T15:56:41;23.80;78.70
59855;DHT22;45732;52.850;6.896;2022-09-02T15:59:15;23.70;79.60
59855;DHT22;45732;52.850;6.896;2022-09-02T16:01:44;23.70;79.40
59855;DHT22;45732;52.850;6.896;2022-09-02T16:04:11;23.60;79.60
59855;DHT22;45732;52.850;6.896;2022-09-02T16:06:39;23.60;79.40
59855;DHT22;45732;52.850;6.896;2022-09-02T16:09:10;23.70;79.00
59855;DHT22;45732;52.850;6.896;2022-09-02T16:11:48;23.70;78.90
59855;DHT22;45732;52.850;6.896;2022-09-02T16:14:14;23.70;78.90
59855;DHT22;45732;52.850;6.896;2022-09-02T16:16:41;23.70;79.90
59855;DHT22;45732;52.850;6.896;2022-09-02T16:19:07;23.70;79.50
59855;DHT22;45732;52.850;6.896;2022-09-02T16:21:34;23.70;79.70
59855;DHT22;45732;52.850;6.896;2022-09-02T16:24:04;23.70;80.00
59855;DHT22;45732;52.850;6.896;2022-09-02T16:26:31;23.70;79.60
59855;DHT22;45732;52.850;6.896;2022-09-02T16:28:59;23.60;79.30
59855;DHT22;45732;52.850;6.896;2022-09-02T16:31:27;23.50;79.70
59855;DHT22;45732;52.850;6.896;2022-09-02T16:33:56;23.50;79.80
59855;DHT22;45732;52.850;6.896;2022-09-02T16:36:24;23.40;80.00
59855;DHT22;45732;52.850;6.896;2022-09-02T16:38:50;23.30;80.10
59855;DHT22;45732;52.850;6.896;2022-09-02T16:41:27;23.30;80.30
59855;DHT22;45732;52.850;6.896;2022-09-02T16:43:55;23.30;80.90
59855;DHT22;45732;52.850;6.896;2022-09-02T16:46:21;23.30;81.20
59855;DHT22;45732;52.850;6.896;2022-09-02T16:48:48;23.20;81.30
59855;DHT22;45732;52.850;6.896;2022-09-02T16:51:14;23.20;80.60
59855;DHT22;45732;52.850;6.896;2022-09-02T16:53:39;23.30;80.60
59855;DHT22;45732;52.850;6.896;2022-09-02T16:56:05;23.40;81.20
59855;DHT22;45732;52.850;6.896;2022-09-02T16:58:34;23.50;81.30
59855;DHT22;45732;52.850;6.896;2022-09-02T17:01:04;23.60;81.30
59855;DHT22;45732;52.850;6.896;2022-09-02T17:03:31;23.70;81.70
59855;DHT22;45732;52.850;6.896;2022-09-02T17:05:58;23.60;80.70
59855;DHT22;45732;52.850;6.896;2022-09-02T17:08:23;23.50;80.00
59855;DHT22;45732;52.850;6.896;2022-09-02T17:10:49;23.60;79.70
59855;DHT22;45732;52.850;6.896;2022-09-02T17:13:15;23.70;80.00
59855;DHT22;45732;52.850;6.896;2022-09-02T17:15:40;24.00;79.30
59855;DHT22;45732;52.850;6.896;2022-09-02T17:18:06;23.90;79.70
59855;DHT22;45732;52.850;6.896;2022-09-02T17:20:32;23.80;79.20
59855;DHT22;45732;52.850;6.896;2022-09-02T17:22:58;23.70;79.60
59855;DHT22;45732;52.850;6.896;2022-09-02T17:25:24;23.50;79.80
59855;DHT22;45732;52.850;6.896;2022-09-02T17:27:50;23.40;79.80
59855;DHT22;45732;52.850;6.896;2022-09-02T17:30:15;23.20;80.10
59855;DHT22;45732;52.850;6.896;2022-09-02T17:32:41;23.10;80.20
59855;DHT22;45732;52.850;6.896;2022-09-02T17:35:09;23.00;80.00
59855;DHT22;45732;52.850;6.896;2022-09-02T17:37:35;22.90;80.20
59855;DHT22;45732;52.850;6.896;2022-09-02T17:40:06;22.90;79.90
59855;DHT22;45732;52.850;6.896;2022-09-02T17:42:52;22.70;79.90
59855;DHT22;45732;52.850;6.896;2022-09-02T17:45:18;22.60;80.10
59855;DHT22;45732;52.850;6.896;2022-09-02T17:47:44;22.60;80.30
59855;DHT22;45732;52.850;6.896;2022-09-02T17:50:09;22.50;80.50
59855;DHT22;45732;52.850;6.896;2022-09-02T17:52:35;22.40;80.60
59855;DHT22;45732;52.850;6.896;2022-09-02T17:55:00;22.40;81.00
59855;DHT22;45732;52.850;6.896;2022-09-02T17:57:46;22.30;80.90
59855;DHT22;45732;52.850;6.896;2022-09-02T18:00:19;22.20;81.40
59855;DHT22;45732;52.850;6.896;2022-09-02T18:11:07;21.90;81.40
59855;DHT22;45732;52.850;6.896;2022-09-02T18:21:50;21.60;82.40